createdAt,value
2019-03-26T00:02:13.978Z,91.70
2019-03-26T00:08:16.805Z,91.70
2019-03-26T00:14:20.618Z,91.60
2019-03-26T00:20:23.412Z,91.70
2019-03-26T00:26:26.289Z,91.50
2019-03-26T00:32:48.318Z,91.90
2019-03-26T00:38:51.446Z,91.30
2019-03-26T00:44:54.278Z,91.30
2019-03-26T00:50:57.112Z,91.10
2019-03-26T00:57:00.059Z,91.10
2019-03-26T01:03:05.615Z,91.30
2019-03-26T01:09:08.489Z,91.30
2019-03-26T01:15:11.448Z,91.50
2019-03-26T01:21:14.407Z,91.80
2019-03-26T01:27:17.257Z,91.70
2019-03-26T01:33:20.926Z,91.80
2019-03-26T01:39:23.855Z,91.80
2019-03-26T01:45:26.638Z,91.60
2019-03-26T01:51:30.587Z,91.70
2019-03-26T01:57:33.416Z,91.40
2019-03-26T02:03:36.373Z,91.60
2019-03-26T02:09:40.382Z,91.40
2019-03-26T02:15:43.434Z,91.40
2019-03-26T02:21:46.296Z,91.50
2019-03-26T02:27:49.460Z,91.60
2019-03-26T02:33:52.259Z,91.40
2019-03-26T02:39:55.122Z,91.30
2019-03-26T02:45:58.032Z,91.30
2019-03-26T02:52:01.093Z,91.30
2019-03-26T02:58:04.383Z,91.30
2019-03-26T03:04:07.198Z,90.80
2019-03-26T03:10:10.158Z,91.10
2019-03-26T03:16:13.337Z,91.10
2019-03-26T03:22:16.617Z,91.50
2019-03-26T03:28:19.578Z,91.00
2019-03-26T03:34:22.457Z,90.70
2019-03-26T03:40:25.350Z,90.80
2019-03-26T03:46:28.281Z,90.80
2019-03-26T03:52:41.745Z,90.80
2019-03-26T03:58:47.012Z,90.30
2019-03-26T04:04:49.889Z,90.40
2019-03-26T04:10:56.474Z,90.10
2019-03-26T04:16:59.321Z,90.10
2019-03-26T04:23:04.203Z,90.20
2019-03-26T04:29:07.969Z,89.90
2019-03-26T04:35:11.051Z,89.60
2019-03-26T04:41:13.815Z,89.80
2019-03-26T04:47:16.561Z,90.10
2019-03-26T04:53:19.333Z,90.30
2019-03-26T04:59:22.220Z,90.50
2019-03-26T05:05:25.121Z,90.80
2019-03-26T05:11:28.179Z,90.30
2019-03-26T05:17:31.047Z,90.20
2019-03-26T05:23:34.995Z,90.20
2019-03-26T05:29:39.046Z,90.10
2019-03-26T05:35:42.011Z,90.10
2019-03-26T05:41:44.765Z,89.80
2019-03-26T05:47:47.499Z,90.30
2019-03-26T05:53:50.605Z,90.20
2019-03-26T05:59:54.808Z,90.40
2019-03-26T06:05:58.122Z,90.10
2019-03-26T06:12:01.027Z,89.80
2019-03-26T06:18:04.939Z,89.00
2019-03-26T06:24:10.681Z,89.00
2019-03-26T06:30:20.993Z,88.70
2019-03-26T06:36:23.781Z,88.30
2019-03-26T06:42:27.852Z,87.90
2019-03-26T06:48:30.764Z,87.50
2019-03-26T06:54:34.722Z,87.40
2019-03-26T07:00:37.628Z,87.10
2019-03-26T07:06:40.835Z,86.30
2019-03-26T07:12:44.935Z,86.00
2019-03-26T07:18:47.911Z,84.60
2019-03-26T07:24:51.113Z,83.90
2019-03-26T07:30:54.446Z,82.70
2019-03-26T07:36:59.927Z,82.10
2019-03-26T07:43:04.115Z,81.60
2019-03-26T07:49:12.469Z,79.60
2019-03-26T07:55:18.712Z,78.90
2019-03-26T08:01:36.651Z,78.90
2019-03-26T08:07:28.620Z,78.30
2019-03-26T08:13:31.568Z,73.60
2019-03-26T08:19:34.967Z,71.80
2019-03-26T08:25:39.273Z,70.40
2019-03-26T08:31:42.161Z,67.80
2019-03-26T08:37:45.376Z,66.20
2019-03-26T08:43:48.235Z,63.90
2019-03-26T08:49:51.095Z,63.40
2019-03-26T08:55:54.648Z,64.10
2019-03-26T09:01:59.892Z,61.30
2019-03-26T09:08:03.197Z,58.70
2019-03-26T09:14:06.246Z,57.50
2019-03-26T09:20:09.685Z,56.10
2019-03-26T09:26:12.499Z,54.30
2019-03-26T09:32:15.594Z,53.90
2019-03-26T09:38:22.259Z,53.60
2019-03-26T09:44:25.152Z,53.20
2019-03-26T09:50:33.814Z,53.20
2019-03-26T09:56:36.754Z,52.80
2019-03-26T10:02:43.038Z,53.80
2019-03-26T10:08:52.290Z,51.80
2019-03-26T10:14:50.467Z,52.90
2019-03-26T10:20:53.478Z,53.80
2019-03-26T10:26:56.426Z,53.60
2019-03-26T10:32:59.363Z,54.40
2019-03-26T10:39:05.458Z,54.80
2019-03-26T10:45:07.114Z,53.40
2019-03-26T10:51:10.049Z,54.20
2019-03-26T10:57:15.665Z,54.40
2019-03-26T11:03:18.840Z,54.40
2019-03-26T11:09:26.909Z,55.30
2019-03-26T11:15:28.962Z,54.50
2019-03-26T11:21:32.126Z,52.40
2019-03-26T11:27:56.776Z,49.20
2019-03-26T11:33:59.810Z,49.70
2019-03-26T11:40:04.715Z,52.20
2019-03-26T11:46:07.764Z,53.50
2019-03-26T11:52:10.789Z,55.30
2019-03-26T11:58:16.164Z,57.30
2019-03-26T12:04:19.044Z,56.60
2019-03-26T12:10:23.269Z,56.40
2019-03-26T12:16:26.813Z,55.90
2019-03-26T12:22:31.533Z,55.40
2019-03-26T12:28:34.918Z,53.20
2019-03-26T12:34:37.728Z,51.50
2019-03-26T12:40:40.885Z,52.10
2019-03-26T12:46:44.382Z,55.30
2019-03-26T12:52:47.432Z,58.20
2019-03-26T12:58:52.893Z,60.60
2019-03-26T13:04:56.585Z,63.00
2019-03-26T13:10:59.942Z,63.80
2019-03-26T13:17:06.727Z,64.30
2019-03-26T13:23:20.528Z,65.60
2019-03-26T13:29:23.591Z,64.70
2019-03-26T13:35:29.486Z,63.80
2019-03-26T13:41:33.488Z,61.40
2019-03-26T13:47:37.547Z,59.80
2019-03-26T13:53:42.947Z,59.10
2019-03-26T13:59:49.162Z,58.00
2019-03-26T14:05:52.369Z,58.80
2019-03-26T14:11:57.729Z,58.20
2019-03-26T14:18:00.395Z,58.60
2019-03-26T14:24:03.396Z,58.60
2019-03-26T14:30:07.328Z,58.50
2019-03-26T14:36:10.146Z,58.20
2019-03-26T14:42:13.251Z,58.10
2019-03-26T14:48:16.676Z,58.20
2019-03-26T14:54:19.470Z,59.40
2019-03-26T15:00:22.503Z,59.70
2019-03-26T15:06:28.462Z,58.40
2019-03-26T15:12:31.369Z,57.20
2019-03-26T15:18:35.887Z,58.20
2019-03-26T15:24:40.836Z,59.40
2019-03-26T15:30:46.363Z,59.70
2019-03-26T15:36:50.110Z,60.40
2019-03-26T15:42:53.219Z,61.50
2019-03-26T15:48:59.737Z,61.70
2019-03-26T15:55:02.938Z,62.60
2019-03-26T16:01:06.641Z,63.10
2019-03-26T16:07:19.479Z,63.80
2019-03-26T16:13:24.602Z,62.30
2019-03-26T16:19:32.775Z,64.20
2019-03-26T16:25:35.210Z,64.60
2019-03-26T16:31:43.630Z,62.90
2019-03-26T16:37:49.958Z,61.40
2019-03-26T16:43:54.234Z,59.40
2019-03-26T16:49:57.109Z,60.40
2019-03-26T16:56:07.030Z,61.90
2019-03-26T17:02:12.342Z,63.10
2019-03-26T17:08:22.665Z,63.40
2019-03-26T17:14:26.813Z,64.10
2019-03-26T17:20:34.480Z,63.90
2019-03-26T17:26:39.926Z,64.10
2019-03-26T17:32:45.729Z,64.60
2019-03-26T17:38:49.524Z,65.20
2019-03-26T17:44:52.741Z,65.80
2019-03-26T17:50:55.731Z,66.90
2019-03-26T17:56:59.385Z,67.10
2019-03-26T18:03:02.477Z,67.20
2019-03-26T18:09:06.500Z,67.60
2019-03-26T18:15:09.589Z,68.20
2019-03-26T18:21:15.029Z,68.30
2019-03-26T18:27:17.865Z,69.20
2019-03-26T18:33:28.229Z,69.40
2019-03-26T18:39:32.819Z,70.30
2019-03-26T18:45:38.655Z,70.50
2019-03-26T18:51:43.696Z,71.20
2019-03-26T18:57:49.002Z,72.00
2019-03-26T19:03:52.500Z,72.40
2019-03-26T19:09:56.955Z,73.00
2019-03-26T19:16:02.240Z,73.30
2019-03-26T19:22:05.310Z,73.10
2019-03-26T19:28:11.585Z,73.20
2019-03-26T19:34:14.548Z,72.90
2019-03-26T19:40:18.409Z,72.90
2019-03-26T19:46:23.173Z,73.30
2019-03-26T19:52:25.999Z,73.00
2019-03-26T19:58:29.178Z,73.20
2019-03-26T20:04:35.102Z,73.80
2019-03-26T20:10:41.565Z,74.60
2019-03-26T20:16:46.086Z,75.70
2019-03-26T20:22:49.080Z,76.30
2019-03-26T20:28:53.898Z,75.90
2019-03-26T20:34:57.046Z,76.10
2019-03-26T20:41:00.440Z,75.50
2019-03-26T20:47:03.878Z,75.80
2019-03-26T20:53:07.858Z,74.90
2019-03-26T20:59:33.726Z,74.50
2019-03-26T21:05:40.016Z,74.50
2019-03-26T21:11:44.318Z,74.60
2019-03-26T21:17:47.218Z,74.60
2019-03-26T21:23:50.225Z,74.50
2019-03-26T21:29:53.591Z,74.50
2019-03-26T21:35:56.817Z,74.20
2019-03-26T21:42:00.227Z,74.20
2019-03-26T21:48:04.608Z,73.90
2019-03-26T21:54:09.512Z,73.80
2019-03-26T22:00:15.002Z,72.80
2019-03-26T22:06:28.555Z,72.80
2019-03-26T22:12:37.271Z,73.10
2019-03-26T22:18:43.565Z,72.70
2019-03-26T22:24:46.551Z,71.40
2019-03-26T22:30:49.541Z,71.40
2019-03-26T22:36:53.102Z,71.90
2019-03-26T22:42:57.985Z,71.70
2019-03-26T22:49:03.361Z,71.00
2019-03-26T22:55:10.021Z,71.30
2019-03-26T23:01:17.490Z,71.30
2019-03-26T23:07:36.395Z,70.70
2019-03-26T23:13:39.279Z,71.40
2019-03-26T23:19:47.414Z,72.00
2019-03-26T23:25:50.546Z,71.80
2019-03-26T23:31:53.396Z,72.50
2019-03-26T23:37:56.282Z,72.90
2019-03-26T23:44:01.370Z,72.70
2019-03-26T23:50:08.524Z,73.30
2019-03-26T23:56:11.356Z,73.20
